sensor_id;sensor_type;location;lat;lon;timestamp;P1;durP1;ratioP1;P2;durP2;ratioP2
37701;SDS011;23548;51.196;6.838;2023-04-03T00:01:32;14.65;;;10.50;;
37701;SDS011;23548;51.196;6.838;2023-04-03T00:03:58;19.27;;;11.40;;
37701;SDS011;23548;51.196;6.838;2023-04-03T00:06:25;19.38;;;11.52;;
37701;SDS011;23548;51.196;6.838;2023-04-03T00:08:51;18.20;;;11.07;;
37701;SDS011;23548;51.196;6.838;2023-04-03T00:11:18;17.08;;;10.45;;
37701;SDS011;23548;51.196;6.838;2023-04-03T00:13:44;15.73;;;10.93;;
37701;SDS011;23548;51.196;6.838;2023-04-03T00:16:10;21.33;;;10.70;;
37701;SDS011;23548;51.196;6.838;2023-04-03T00:18:37;17.73;;;10.68;;
37701;SDS011;23548;51.196;6.838;2023-04-03T00:21:03;15.95;;;10.05;;
37701;SDS011;23548;51.196;6.838;2023-04-03T00:23:30;16.05;;;10.23;;
37701;SDS011;23548;51.196;6.838;2023-04-03T00:25:55;16.08;;;9.80;;
37701;SDS011;23548;51.196;6.838;2023-04-03T00:28:22;20.48;;;11.75;;
37701;SDS011;23548;51.196;6.838;2023-04-03T00:30:51;19.48;;;11.07;;
37701;SDS011;23548;51.196;6.838;2023-04-03T00:33:17;21.35;;;11.45;;
37701;SDS011;23548;51.196;6.838;2023-04-03T00:35:46;18.92;;;12.43;;
37701;SDS011;23548;51.196;6.838;2023-04-03T00:38:13;19.80;;;11.02;;
37701;SDS011;23548;51.196;6.838;2023-04-03T00:40:41;22.95;;;11.13;;
37701;SDS011;23548;51.196;6.838;2023-04-03T00:43:13;16.38;;;10.88;;
37701;SDS011;23548;51.196;6.838;2023-04-03T00:45:42;15.60;;;10.55;;
37701;SDS011;23548;51.196;6.838;2023-04-03T00:48:11;17.77;;;11.45;;
37701;SDS011;23548;51.196;6.838;2023-04-03T00:50:43;18.20;;;10.57;;
37701;SDS011;23548;51.196;6.838;2023-04-03T00:53:11;18.17;;;10.98;;
37701;SDS011;23548;51.196;6.838;2023-04-03T00:55:42;18.20;;;10.70;;
37701;SDS011;23548;51.196;6.838;2023-04-03T00:58:09;15.90;;;9.93;;
37701;SDS011;23548;51.196;6.838;2023-04-03T01:00:37;13.15;;;9.57;;
37701;SDS011;23548;51.196;6.838;2023-04-03T01:03:07;20.98;;;10.85;;
37701;SDS011;23548;51.196;6.838;2023-04-03T01:05:32;18.65;;;11.00;;
37701;SDS011;23548;51.196;6.838;2023-04-03T01:07:58;17.33;;;10.82;;
37701;SDS011;23548;51.196;6.838;2023-04-03T01:10:25;15.30;;;10.35;;
37701;SDS011;23548;51.196;6.838;2023-04-03T01:12:51;17.48;;;10.55;;
37701;SDS011;23548;51.196;6.838;2023-04-03T01:15:26;15.07;;;10.07;;
37701;SDS011;23548;51.196;6.838;2023-04-03T01:18:14;15.38;;;10.15;;
37701;SDS011;23548;51.196;6.838;2023-04-03T01:20:49;16.85;;;10.02;;
37701;SDS011;23548;51.196;6.838;2023-04-03T01:23:45;19.75;;;10.88;;
37701;SDS011;23548;51.196;6.838;2023-04-03T01:26:24;17.40;;;10.88;;
37701;SDS011;23548;51.196;6.838;2023-04-03T01:28:53;16.02;;;10.27;;
37701;SDS011;23548;51.196;6.838;2023-04-03T01:31:22;18.75;;;11.50;;
37701;SDS011;23548;51.196;6.838;2023-04-03T01:33:49;21.10;;;11.27;;
37701;SDS011;23548;51.196;6.838;2023-04-03T01:36:17;17.13;;;10.43;;
37701;SDS011;23548;51.196;6.838;2023-04-03T01:38:45;14.45;;;10.55;;
37701;SDS011;23548;51.196;6.838;2023-04-03T01:41:11;18.48;;;11.57;;
37701;SDS011;23548;51.196;6.838;2023-04-03T01:43:37;15.70;;;11.68;;
37701;SDS011;23548;51.196;6.838;2023-04-03T01:46:03;18.98;;;10.90;;
37701;SDS011;23548;51.196;6.838;2023-04-03T01:48:28;20.17;;;11.70;;
37701;SDS011;23548;51.196;6.838;2023-04-03T01:50:54;21.35;;;11.63;;
37701;SDS011;23548;51.196;6.838;2023-04-03T01:53:20;16.77;;;10.23;;
37701;SDS011;23548;51.196;6.838;2023-04-03T01:55:46;16.77;;;10.88;;
37701;SDS011;23548;51.196;6.838;2023-04-03T01:58:11;21.10;;;11.15;;
37701;SDS011;23548;51.196;6.838;2023-04-03T02:00:37;16.77;;;10.80;;
37701;SDS011;23548;51.196;6.838;2023-04-03T02:03:03;16.77;;;10.35;;
37701;SDS011;23548;51.196;6.838;2023-04-03T02:05:29;17.20;;;9.98;;
37701;SDS011;23548;51.196;6.838;2023-04-03T02:07:55;14.55;;;8.43;;
37701;SDS011;23548;51.196;6.838;2023-04-03T02:10:21;11.98;;;8.00;;
37701;SDS011;23548;51.196;6.838;2023-04-03T02:12:47;13.35;;;7.70;;
37701;SDS011;23548;51.196;6.838;2023-04-03T02:15:12;13.50;;;7.45;;
37701;SDS011;23548;51.196;6.838;2023-04-03T02:17:38;13.88;;;7.75;;
37701;SDS011;23548;51.196;6.838;2023-04-03T02:20:04;12.43;;;6.95;;
37701;SDS011;23548;51.196;6.838;2023-04-03T02:22:30;11.93;;;7.10;;
37701;SDS011;23548;51.196;6.838;2023-04-03T02:24:55;11.63;;;7.03;;
37701;SDS011;23548;51.196;6.838;2023-04-03T02:27:21;14.32;;;6.95;;
37701;SDS011;23548;51.196;6.838;2023-04-03T02:29:47;8.85;;;6.32;;
37701;SDS011;23548;51.196;6.838;2023-04-03T02:32:13;14.65;;;7.38;;
37701;SDS011;23548;51.196;6.838;2023-04-03T02:34:39;10.60;;;6.25;;
37701;SDS011;23548;51.196;6.838;2023-04-03T02:37:05;10.73;;;6.07;;
37701;SDS011;23548;51.196;6.838;2023-04-03T02:39:31;9.30;;;6.53;;
37701;SDS011;23548;51.196;6.838;2023-04-03T02:41:57;10.60;;;7.30;;
37701;SDS011;23548;51.196;6.838;2023-04-03T02:44:22;10.68;;;6.78;;
37701;SDS011;23548;51.196;6.838;2023-04-03T02:46:48;10.82;;;6.82;;
37701;SDS011;23548;51.196;6.838;2023-04-03T02:49:14;9.75;;;6.47;;
37701;SDS011;23548;51.196;6.838;2023-04-03T02:51:40;9.07;;;6.45;;
37701;SDS011;23548;51.196;6.838;2023-04-03T02:54:06;9.77;;;5.88;;
37701;SDS011;23548;51.196;6.838;2023-04-03T02:56:33;8.45;;;6.32;;
37701;SDS011;23548;51.196;6.838;2023-04-03T02:58:58;10.07;;;6.78;;
37701;SDS011;23548;51.196;6.838;2023-04-03T03:01:24;8.13;;;5.95;;
37701;SDS011;23548;51.196;6.838;2023-04-03T03:03:52;10.38;;;6.28;;
37701;SDS011;23548;51.196;6.838;2023-04-03T03:06:17;11.70;;;6.57;;
37701;SDS011;23548;51.196;6.838;2023-04-03T03:08:43;10.85;;;6.80;;
37701;SDS011;23548;51.196;6.838;2023-04-03T03:11:09;15.13;;;6.82;;
37701;SDS011;23548;51.196;6.838;2023-04-03T03:13:36;11.60;;;7.20;;
37701;SDS011;23548;51.196;6.838;2023-04-03T03:16:02;10.20;;;6.32;;
37701;SDS011;23548;51.196;6.838;2023-04-03T03:18:28;10.32;;;6.70;;
37701;SDS011;23548;51.196;6.838;2023-04-03T03:20:55;11.70;;;6.30;;
37701;SDS011;23548;51.196;6.838;2023-04-03T03:23:22;11.20;;;6.65;;
37701;SDS011;23548;51.196;6.838;2023-04-03T03:25:54;10.75;;;6.13;;
37701;SDS011;23548;51.196;6.838;2023-04-03T03:28:21;8.07;;;5.97;;
37701;SDS011;23548;51.196;6.838;2023-04-03T03:30:46;15.02;;;6.65;;
37701;SDS011;23548;51.196;6.838;2023-04-03T03:33:12;9.80;;;6.55;;
37701;SDS011;23548;51.196;6.838;2023-04-03T03:35:38;9.73;;;6.47;;
37701;SDS011;23548;51.196;6.838;2023-04-03T03:38:03;9.80;;;6.07;;
37701;SDS011;23548;51.196;6.838;2023-04-03T03:40:29;10.88;;;6.47;;
37701;SDS011;23548;51.196;6.838;2023-04-03T03:42:55;9.70;;;6.10;;
37701;SDS011;23548;51.196;6.838;2023-04-03T03:45:21;10.13;;;6.50;;
37701;SDS011;23548;51.196;6.838;2023-04-03T03:47:46;11.75;;;6.43;;
37701;SDS011;23548;51.196;6.838;2023-04-03T03:50:13;10.48;;;6.47;;
37701;SDS011;23548;51.196;6.838;2023-04-03T03:52:38;7.70;;;5.65;;
37701;SDS011;23548;51.196;6.838;2023-04-03T03:55:04;7.72;;;5.63;;
37701;SDS011;23548;51.196;6.838;2023-04-03T03:57:30;10.38;;;6.25;;
37701;SDS011;23548;51.196;6.838;2023-04-03T03:59:56;11.77;;;5.70;;
37701;SDS011;23548;51.196;6.838;2023-04-03T04:02:22;12.10;;;5.90;;
37701;SDS011;23548;51.196;6.838;2023-04-03T04:04:48;9.80;;;6.25;;
37701;SDS011;23548;51.196;6.838;2023-04-03T04:07:13;8.18;;;6.03;;
37701;SDS011;23548;51.196;6.838;2023-04-03T04:09:39;14.40;;;6.07;;
37701;SDS011;23548;51.196;6.838;2023-04-03T04:12:05;8.15;;;5.85;;
37701;SDS011;23548;51.196;6.838;2023-04-03T04:14:31;11.43;;;5.68;;
37701;SDS011;23548;51.196;6.838;2023-04-03T04:16:56;12.73;;;5.90;;
37701;SDS011;23548;51.196;6.838;2023-04-03T04:19:22;10.63;;;5.47;;
37701;SDS011;23548;51.196;6.838;2023-04-03T04:21:48;11.45;;;5.82;;
37701;SDS011;23548;51.196;6.838;2023-04-03T04:24:14;13.18;;;5.72;;
37701;SDS011;23548;51.196;6.838;2023-04-03T04:26:40;10.10;;;5.55;;
37701;SDS011;23548;51.196;6.838;2023-04-03T04:29:06;11.23;;;5.55;;
37701;SDS011;23548;51.196;6.838;2023-04-03T04:31:33;10.80;;;5.32;;
37701;SDS011;23548;51.196;6.838;2023-04-03T04:33:59;9.25;;;5.22;;
37701;SDS011;23548;51.196;6.838;2023-04-03T04:36:25;11.15;;;5.30;;
37701;SDS011;23548;51.196;6.838;2023-04-03T04:38:50;8.32;;;5.10;;
37701;SDS011;23548;51.196;6.838;2023-04-03T04:41:19;12.57;;;5.20;;
37701;SDS011;23548;51.196;6.838;2023-04-03T04:43:47;8.68;;;5.55;;
37701;SDS011;23548;51.196;6.838;2023-04-03T04:46:13;11.63;;;4.88;;
37701;SDS011;23548;51.196;6.838;2023-04-03T04:48:40;10.63;;;5.75;;
37701;SDS011;23548;51.196;6.838;2023-04-03T04:51:06;10.07;;;5.10;;
37701;SDS011;23548;51.196;6.838;2023-04-03T04:53:31;11.75;;;5.30;;
37701;SDS011;23548;51.196;6.838;2023-04-03T04:55:57;11.05;;;5.22;;
37701;SDS011;23548;51.196;6.838;2023-04-03T04:58:23;9.60;;;5.13;;
37701;SDS011;23548;51.196;6.838;2023-04-03T05:00:57;12.73;;;5.18;;
37701;SDS011;23548;51.196;6.838;2023-04-03T05:03:33;10.30;;;5.07;;
37701;SDS011;23548;51.196;6.838;2023-04-03T05:05:59;11.38;;;5.03;;
37701;SDS011;23548;51.196;6.838;2023-04-03T05:08:25;12.38;;;5.03;;
37701;SDS011;23548;51.196;6.838;2023-04-03T05:10:51;9.85;;;4.70;;
37701;SDS011;23548;51.196;6.838;2023-04-03T05:13:18;8.75;;;5.28;;
37701;SDS011;23548;51.196;6.838;2023-04-03T05:15:43;19.42;;;4.53;;
37701;SDS011;23548;51.196;6.838;2023-04-03T05:18:09;8.85;;;4.43;;
37701;SDS011;23548;51.196;6.838;2023-04-03T05:20:35;9.25;;;4.38;;
37701;SDS011;23548;51.196;6.838;2023-04-03T05:23:02;5.90;;;4.28;;
37701;SDS011;23548;51.196;6.838;2023-04-03T05:25:27;8.50;;;4.80;;
37701;SDS011;23548;51.196;6.838;2023-04-03T05:27:53;8.07;;;4.80;;
37701;SDS011;23548;51.196;6.838;2023-04-03T05:30:19;8.90;;;4.03;;
37701;SDS011;23548;51.196;6.838;2023-04-03T05:32:45;9.80;;;4.25;;
37701;SDS011;23548;51.196;6.838;2023-04-03T05:35:11;14.10;;;5.30;;
37701;SDS011;23548;51.196;6.838;2023-04-03T05:37:36;6.68;;;4.00;;
37701;SDS011;23548;51.196;6.838;2023-04-03T05:40:03;9.88;;;4.03;;
37701;SDS011;23548;51.196;6.838;2023-04-03T05:42:29;8.32;;;4.38;;
37701;SDS011;23548;51.196;6.838;2023-04-03T05:44:55;8.20;;;4.60;;
37701;SDS011;23548;51.196;6.838;2023-04-03T05:47:21;7.80;;;4.85;;
37701;SDS011;23548;51.196;6.838;2023-04-03T05:49:47;11.93;;;4.88;;
37701;SDS011;23548;51.196;6.838;2023-04-03T05:52:26;7.60;;;4.07;;
37701;SDS011;23548;51.196;6.838;2023-04-03T05:54:54;9.35;;;4.57;;
37701;SDS011;23548;51.196;6.838;2023-04-03T05:57:20;7.45;;;4.53;;
37701;SDS011;23548;51.196;6.838;2023-04-03T05:59:46;8.20;;;4.18;;
37701;SDS011;23548;51.196;6.838;2023-04-03T06:02:14;9.07;;;4.25;;
37701;SDS011;23548;51.196;6.838;2023-04-03T06:04:41;10.30;;;4.38;;
37701;SDS011;23548;51.196;6.838;2023-04-03T06:07:09;13.35;;;4.63;;
37701;SDS011;23548;51.196;6.838;2023-04-03T06:09:42;8.30;;;4.00;;
37701;SDS011;23548;51.196;6.838;2023-04-03T06:12:08;8.00;;;4.32;;
37701;SDS011;23548;51.196;6.838;2023-04-03T06:14:34;10.75;;;4.07;;
37701;SDS011;23548;51.196;6.838;2023-04-03T06:17:00;9.57;;;4.30;;
37701;SDS011;23548;51.196;6.838;2023-04-03T06:19:26;8.35;;;3.92;;
37701;SDS011;23548;51.196;6.838;2023-04-03T06:21:52;11.63;;;4.13;;
37701;SDS011;23548;51.196;6.838;2023-04-03T06:24:18;7.75;;;4.40;;
37701;SDS011;23548;51.196;6.838;2023-04-03T06:26:46;10.68;;;4.25;;
37701;SDS011;23548;51.196;6.838;2023-04-03T06:29:12;10.30;;;4.32;;
37701;SDS011;23548;51.196;6.838;2023-04-03T06:31:38;11.75;;;4.00;;
37701;SDS011;23548;51.196;6.838;2023-04-03T06:34:05;10.30;;;4.28;;
37701;SDS011;23548;51.196;6.838;2023-04-03T06:36:32;10.38;;;4.32;;
37701;SDS011;23548;51.196;6.838;2023-04-03T06:38:58;9.13;;;3.97;;
37701;SDS011;23548;51.196;6.838;2023-04-03T06:41:24;9.73;;;4.35;;
37701;SDS011;23548;51.196;6.838;2023-04-03T06:43:51;10.63;;;4.53;;
37701;SDS011;23548;51.196;6.838;2023-04-03T06:46:17;7.78;;;4.10;;
37701;SDS011;23548;51.196;6.838;2023-04-03T06:48:45;9.75;;;4.25;;
37701;SDS011;23548;51.196;6.838;2023-04-03T06:51:18;9.68;;;3.83;;
37701;SDS011;23548;51.196;6.838;2023-04-03T06:53:49;10.85;;;3.90;;
37701;SDS011;23548;51.196;6.838;2023-04-03T06:56:16;6.15;;;3.72;;
37701;SDS011;23548;51.196;6.838;2023-04-03T06:58:43;12.55;;;3.78;;
37701;SDS011;23548;51.196;6.838;2023-04-03T07:01:10;10.82;;;3.53;;
37701;SDS011;23548;51.196;6.838;2023-04-03T07:03:37;8.23;;;3.33;;
37701;SDS011;23548;51.196;6.838;2023-04-03T07:06:03;10.05;;;3.50;;
37701;SDS011;23548;51.196;6.838;2023-04-03T07:08:30;8.50;;;3.50;;
37701;SDS011;23548;51.196;6.838;2023-04-03T07:10:56;9.75;;;4.18;;
37701;SDS011;23548;51.196;6.838;2023-04-03T07:13:22;9.02;;;3.38;;
37701;SDS011;23548;51.196;6.838;2023-04-03T07:15:47;7.90;;;3.13;;
37701;SDS011;23548;51.196;6.838;2023-04-03T07:18:14;13.32;;;4.03;;
37701;SDS011;23548;51.196;6.838;2023-04-03T07:20:40;10.38;;;3.33;;
37701;SDS011;23548;51.196;6.838;2023-04-03T07:23:09;6.50;;;3.20;;
37701;SDS011;23548;51.196;6.838;2023-04-03T07:25:35;10.73;;;3.72;;
37701;SDS011;23548;51.196;6.838;2023-04-03T07:28:02;5.28;;;2.92;;
37701;SDS011;23548;51.196;6.838;2023-04-03T07:30:29;19.70;;;9.00;;
37701;SDS011;23548;51.196;6.838;2023-04-03T07:35:43;8.27;;;3.03;;
37701;SDS011;23548;51.196;6.838;2023-04-03T07:38:10;8.55;;;3.30;;
37701;SDS011;23548;51.196;6.838;2023-04-03T07:40:36;12.13;;;3.15;;
37701;SDS011;23548;51.196;6.838;2023-04-03T07:43:03;11.18;;;3.45;;
37701;SDS011;23548;51.196;6.838;2023-04-03T07:45:30;6.75;;;2.60;;
37701;SDS011;23548;51.196;6.838;2023-04-03T07:47:59;8.18;;;2.92;;
37701;SDS011;23548;51.196;6.838;2023-04-03T07:50:25;10.98;;;3.42;;
37701;SDS011;23548;51.196;6.838;2023-04-03T07:52:52;14.32;;;3.15;;
37701;SDS011;23548;51.196;6.838;2023-04-03T07:55:19;7.50;;;2.95;;
37701;SDS011;23548;51.196;6.838;2023-04-03T07:57:45;5.53;;;2.75;;
37701;SDS011;23548;51.196;6.838;2023-04-03T08:00:11;6.15;;;2.83;;
37701;SDS011;23548;51.196;6.838;2023-04-03T08:02:38;10.80;;;3.15;;
37701;SDS011;23548;51.196;6.838;2023-04-03T08:05:04;6.65;;;2.53;;
37701;SDS011;23548;51.196;6.838;2023-04-03T08:07:30;9.65;;;2.85;;
37701;SDS011;23548;51.196;6.838;2023-04-03T08:09:56;10.07;;;2.45;;
37701;SDS011;23548;51.196;6.838;2023-04-03T08:12:22;7.38;;;2.50;;
37701;SDS011;23548;51.196;6.838;2023-04-03T08:14:47;8.25;;;2.50;;
37701;SDS011;23548;51.196;6.838;2023-04-03T08:17:13;6.00;;;2.15;;
37701;SDS011;23548;51.196;6.838;2023-04-03T08:19:39;9.48;;;2.40;;
37701;SDS011;23548;51.196;6.838;2023-04-03T08:22:05;10.02;;;2.50;;
37701;SDS011;23548;51.196;6.838;2023-04-03T08:24:32;7.28;;;2.42;;
37701;SDS011;23548;51.196;6.838;2023-04-03T08:26:59;5.85;;;2.10;;
37701;SDS011;23548;51.196;6.838;2023-04-03T08:29:25;4.93;;;1.80;;
37701;SDS011;23548;51.196;6.838;2023-04-03T08:31:51;5.53;;;1.83;;
37701;SDS011;23548;51.196;6.838;2023-04-03T08:34:17;4.78;;;1.92;;
37701;SDS011;23548;51.196;6.838;2023-04-03T08:36:44;4.80;;;1.88;;
37701;SDS011;23548;51.196;6.838;2023-04-03T08:39:10;2.72;;;1.55;;
37701;SDS011;23548;51.196;6.838;2023-04-03T08:41:41;6.93;;;2.08;;
37701;SDS011;23548;51.196;6.838;2023-04-03T08:49:22;6.78;;;1.92;;
37701;SDS011;23548;51.196;6.838;2023-04-03T08:51:56;3.15;;;1.50;;
37701;SDS011;23548;51.196;6.838;2023-04-03T08:54:35;9.13;;;2.25;;
37701;SDS011;23548;51.196;6.838;2023-04-03T08:57:13;7.75;;;1.80;;
37701;SDS011;23548;51.196;6.838;2023-04-03T08:59:57;9.60;;;2.25;;
37701;SDS011;23548;51.196;6.838;2023-04-03T09:02:44;5.25;;;1.80;;
37701;SDS011;23548;51.196;6.838;2023-04-03T09:05:14;4.70;;;1.67;;
37701;SDS011;23548;51.196;6.838;2023-04-03T09:07:43;5.22;;;2.22;;
37701;SDS011;23548;51.196;6.838;2023-04-03T09:10:23;6.70;;;2.05;;
37701;SDS011;23548;51.196;6.838;2023-04-03T09:13:08;8.25;;;1.83;;
37701;SDS011;23548;51.196;6.838;2023-04-03T09:15:38;6.82;;;3.28;;
37701;SDS011;23548;51.196;6.838;2023-04-03T09:18:06;4.05;;;1.70;;
37701;SDS011;23548;51.196;6.838;2023-04-03T09:20:49;9.60;;;3.15;;
37701;SDS011;23548;51.196;6.838;2023-04-03T09:26:14;4.35;;;2.03;;
37701;SDS011;23548;51.196;6.838;2023-04-03T09:29:02;5.28;;;1.90;;
37701;SDS011;23548;51.196;6.838;2023-04-03T09:31:42;6.75;;;1.92;;
37701;SDS011;23548;51.196;6.838;2023-04-03T09:37:02;4.57;;;1.98;;
37701;SDS011;23548;51.196;6.838;2023-04-03T09:39:31;7.55;;;2.15;;
37701;SDS011;23548;51.196;6.838;2023-04-03T09:44:55;5.43;;;1.88;;
37701;SDS011;23548;51.196;6.838;2023-04-03T09:47:27;5.40;;;2.13;;
37701;SDS011;23548;51.196;6.838;2023-04-03T09:50:10;4.75;;;2.03;;
37701;SDS011;23548;51.196;6.838;2023-04-03T09:52:46;3.75;;;2.13;;
37701;SDS011;23548;51.196;6.838;2023-04-03T09:57:40;3.70;;;1.50;;
37701;SDS011;23548;51.196;6.838;2023-04-03T10:00:06;4.10;;;1.77;;
37701;SDS011;23548;51.196;6.838;2023-04-03T10:02:51;8.85;;;1.92;;
37701;SDS011;23548;51.196;6.838;2023-04-03T10:05:35;3.13;;;1.70;;
37701;SDS011;23548;51.196;6.838;2023-04-03T10:08:08;4.63;;;1.88;;
37701;SDS011;23548;51.196;6.838;2023-04-03T10:10:34;32.33;;;3.75;;
37701;SDS011;23548;51.196;6.838;2023-04-03T10:13:14;12.10;;;2.38;;
37701;SDS011;23548;51.196;6.838;2023-04-03T10:15:55;4.00;;;1.77;;
37701;SDS011;23548;51.196;6.838;2023-04-03T10:21:29;4.25;;;1.70;;
37701;SDS011;23548;51.196;6.838;2023-04-03T10:27:17;10.68;;;2.28;;
37701;SDS011;23548;51.196;6.838;2023-04-03T10:33:08;6.47;;;1.80;;
37701;SDS011;23548;51.196;6.838;2023-04-03T10:40:57;5.72;;;1.70;;
37701;SDS011;23548;51.196;6.838;2023-04-03T10:43:50;4.53;;;1.90;;
37701;SDS011;23548;51.196;6.838;2023-04-03T10:46:28;3.35;;;1.30;;
37701;SDS011;23548;51.196;6.838;2023-04-03T10:51:28;3.85;;;1.50;;
37701;SDS011;23548;51.196;6.838;2023-04-03T10:56:53;4.75;;;1.70;;
37701;SDS011;23548;51.196;6.838;2023-04-03T10:59:28;4.03;;;1.40;;
37701;SDS011;23548;51.196;6.838;2023-04-03T11:05:04;3.78;;;1.45;;
37701;SDS011;23548;51.196;6.838;2023-04-03T11:07:43;3.53;;;1.10;;
37701;SDS011;23548;51.196;6.838;2023-04-03T11:10:15;5.70;;;1.33;;
37701;SDS011;23548;51.196;6.838;2023-04-03T11:12:51;4.05;;;1.02;;
37701;SDS011;23548;51.196;6.838;2023-04-03T11:15:22;3.20;;;1.50;;
37701;SDS011;23548;51.196;6.838;2023-04-03T11:18:00;3.33;;;1.10;;
37701;SDS011;23548;51.196;6.838;2023-04-03T11:20:31;2.22;;;1.40;;
37701;SDS011;23548;51.196;6.838;2023-04-03T11:23:03;4.53;;;1.10;;
37701;SDS011;23548;51.196;6.838;2023-04-03T11:25:38;2.75;;;1.00;;
37701;SDS011;23548;51.196;6.838;2023-04-03T11:28:09;6.50;;;1.30;;
37701;SDS011;23548;51.196;6.838;2023-04-03T11:36:03;2.45;;;0.90;;
37701;SDS011;23548;51.196;6.838;2023-04-03T11:38:36;1.92;;;0.95;;
37701;SDS011;23548;51.196;6.838;2023-04-03T11:41:07;3.25;;;1.10;;
37701;SDS011;23548;51.196;6.838;2023-04-03T11:43:36;3.33;;;0.98;;
37701;SDS011;23548;51.196;6.838;2023-04-03T11:46:09;2.15;;;0.82;;
37701;SDS011;23548;51.196;6.838;2023-04-03T11:53:45;3.58;;;1.10;;
37701;SDS011;23548;51.196;6.838;2023-04-03T12:04:20;2.10;;;1.05;;
37701;SDS011;23548;51.196;6.838;2023-04-03T12:09:23;5.05;;;1.27;;
37701;SDS011;23548;51.196;6.838;2023-04-03T12:21:09;3.63;;;0.70;;
37701;SDS011;23548;51.196;6.838;2023-04-03T12:23:55;2.25;;;1.00;;
37701;SDS011;23548;51.196;6.838;2023-04-03T12:43:11;1.15;;;0.90;;
37701;SDS011;23548;51.196;6.838;2023-04-03T12:48:17;2.50;;;1.33;;
37701;SDS011;23548;51.196;6.838;2023-04-03T12:50:47;2.15;;;1.20;;
37701;SDS011;23548;51.196;6.838;2023-04-03T12:55:47;4.57;;;1.67;;
37701;SDS011;23548;51.196;6.838;2023-04-03T12:58:22;2.47;;;1.38;;
37701;SDS011;23548;51.196;6.838;2023-04-03T13:00:59;3.15;;;1.35;;
37701;SDS011;23548;51.196;6.838;2023-04-03T13:03:27;2.42;;;1.35;;
37701;SDS011;23548;51.196;6.838;2023-04-03T13:05:55;4.28;;;1.20;;
37701;SDS011;23548;51.196;6.838;2023-04-03T13:08:24;4.55;;;1.60;;
37701;SDS011;23548;51.196;6.838;2023-04-03T13:10:55;2.97;;;1.65;;
37701;SDS011;23548;51.196;6.838;2023-04-03T13:13:25;4.40;;;1.95;;
37701;SDS011;23548;51.196;6.838;2023-04-03T13:15:52;5.38;;;1.30;;
37701;SDS011;23548;51.196;6.838;2023-04-03T13:18:32;3.22;;;1.15;;
37701;SDS011;23548;51.196;6.838;2023-04-03T13:21:23;8.73;;;1.90;;
37701;SDS011;23548;51.196;6.838;2023-04-03T13:23:52;5.93;;;1.40;;
37701;SDS011;23548;51.196;6.838;2023-04-03T13:26:22;4.57;;;1.35;;
37701;SDS011;23548;51.196;6.838;2023-04-03T13:28:51;8.63;;;1.58;;
37701;SDS011;23548;51.196;6.838;2023-04-03T13:31:20;5.20;;;2.00;;
37701;SDS011;23548;51.196;6.838;2023-04-03T13:34:12;7.45;;;2.35;;
37701;SDS011;23548;51.196;6.838;2023-04-03T13:36:38;7.05;;;1.48;;
37701;SDS011;23548;51.196;6.838;2023-04-03T13:42:20;3.95;;;1.38;;
37701;SDS011;23548;51.196;6.838;2023-04-03T13:44:47;5.15;;;1.88;;
37701;SDS011;23548;51.196;6.838;2023-04-03T13:49:43;3.47;;;1.40;;
37701;SDS011;23548;51.196;6.838;2023-04-03T13:52:32;4.75;;;1.77;;
37701;SDS011;23548;51.196;6.838;2023-04-03T13:57:51;3.35;;;1.42;;
37701;SDS011;23548;51.196;6.838;2023-04-03T14:03:38;3.15;;;1.58;;
37701;SDS011;23548;51.196;6.838;2023-04-03T14:06:11;2.83;;;1.50;;
37701;SDS011;23548;51.196;6.838;2023-04-03T14:08:39;3.75;;;1.38;;
37701;SDS011;23548;51.196;6.838;2023-04-03T14:11:05;8.07;;;1.50;;
37701;SDS011;23548;51.196;6.838;2023-04-03T14:13:31;2.55;;;1.48;;
37701;SDS011;23548;51.196;6.838;2023-04-03T14:15:57;6.97;;;1.30;;
37701;SDS011;23548;51.196;6.838;2023-04-03T14:18:23;3.47;;;1.60;;
37701;SDS011;23548;51.196;6.838;2023-04-03T14:20:49;3.13;;;1.42;;
37701;SDS011;23548;51.196;6.838;2023-04-03T14:23:15;4.35;;;1.40;;
37701;SDS011;23548;51.196;6.838;2023-04-03T14:25:40;2.67;;;1.35;;
37701;SDS011;23548;51.196;6.838;2023-04-03T14:28:21;3.05;;;1.52;;
37701;SDS011;23548;51.196;6.838;2023-04-03T14:30:48;3.53;;;1.50;;
37701;SDS011;23548;51.196;6.838;2023-04-03T14:33:20;3.08;;;1.50;;
37701;SDS011;23548;51.196;6.838;2023-04-03T14:35:47;3.22;;;1.50;;
37701;SDS011;23548;51.196;6.838;2023-04-03T14:38:26;3.00;;;1.58;;
37701;SDS011;23548;51.196;6.838;2023-04-03T14:40:54;4.50;;;1.63;;
37701;SDS011;23548;51.196;6.838;2023-04-03T14:43:20;3.67;;;1.63;;
37701;SDS011;23548;51.196;6.838;2023-04-03T14:45:47;3.33;;;1.50;;
37701;SDS011;23548;51.196;6.838;2023-04-03T14:48:20;4.55;;;1.65;;
37701;SDS011;23548;51.196;6.838;2023-04-03T14:50:48;3.75;;;1.58;;
37701;SDS011;23548;51.196;6.838;2023-04-03T14:53:15;2.72;;;1.35;;
37701;SDS011;23548;51.196;6.838;2023-04-03T14:55:43;5.40;;;1.65;;
37701;SDS011;23548;51.196;6.838;2023-04-03T14:58:14;2.30;;;1.70;;
37701;SDS011;23548;51.196;6.838;2023-04-03T15:00:41;3.38;;;1.40;;
37701;SDS011;23548;51.196;6.838;2023-04-03T15:03:12;4.72;;;1.30;;
37701;SDS011;23548;51.196;6.838;2023-04-03T15:05:40;5.63;;;1.42;;
37701;SDS011;23548;51.196;6.838;2023-04-03T15:08:09;2.72;;;1.48;;
37701;SDS011;23548;51.196;6.838;2023-04-03T15:10:44;6.10;;;1.63;;
37701;SDS011;23548;51.196;6.838;2023-04-03T15:13:10;3.60;;;1.70;;
37701;SDS011;23548;51.196;6.838;2023-04-03T15:15:37;4.88;;;1.40;;
37701;SDS011;23548;51.196;6.838;2023-04-03T15:18:03;3.25;;;1.65;;
37701;SDS011;23548;51.196;6.838;2023-04-03T15:20:30;5.97;;;1.45;;
37701;SDS011;23548;51.196;6.838;2023-04-03T15:22:58;4.90;;;1.35;;
37701;SDS011;23548;51.196;6.838;2023-04-03T15:25:28;2.90;;;1.40;;
37701;SDS011;23548;51.196;6.838;2023-04-03T15:27:54;2.03;;;1.30;;
37701;SDS011;23548;51.196;6.838;2023-04-03T15:30:21;3.00;;;1.70;;
37701;SDS011;23548;51.196;6.838;2023-04-03T15:32:47;2.75;;;1.30;;
37701;SDS011;23548;51.196;6.838;2023-04-03T15:35:14;4.45;;;1.60;;
37701;SDS011;23548;51.196;6.838;2023-04-03T15:37:40;5.18;;;1.73;;
37701;SDS011;23548;51.196;6.838;2023-04-03T15:40:06;3.30;;;1.38;;
37701;SDS011;23548;51.196;6.838;2023-04-03T15:42:34;3.10;;;1.17;;
37701;SDS011;23548;51.196;6.838;2023-04-03T15:44:59;2.72;;;1.38;;
37701;SDS011;23548;51.196;6.838;2023-04-03T15:47:26;4.10;;;1.55;;
37701;SDS011;23548;51.196;6.838;2023-04-03T15:49:53;2.50;;;1.50;;
37701;SDS011;23548;51.196;6.838;2023-04-03T15:52:19;2.80;;;1.52;;
37701;SDS011;23548;51.196;6.838;2023-04-03T15:54:45;4.90;;;1.52;;
37701;SDS011;23548;51.196;6.838;2023-04-03T15:57:11;3.28;;;1.55;;
37701;SDS011;23548;51.196;6.838;2023-04-03T15:59:37;3.50;;;1.67;;
37701;SDS011;23548;51.196;6.838;2023-04-03T16:02:04;3.00;;;1.20;;
37701;SDS011;23548;51.196;6.838;2023-04-03T16:04:32;4.97;;;1.40;;
37701;SDS011;23548;51.196;6.838;2023-04-03T16:07:02;8.25;;;1.63;;
37701;SDS011;23548;51.196;6.838;2023-04-03T16:09:29;3.55;;;1.42;;
37701;SDS011;23548;51.196;6.838;2023-04-03T16:11:56;3.67;;;1.58;;
37701;SDS011;23548;51.196;6.838;2023-04-03T16:14:22;1.90;;;1.35;;
37701;SDS011;23548;51.196;6.838;2023-04-03T16:16:48;4.20;;;1.50;;
37701;SDS011;23548;51.196;6.838;2023-04-03T16:19:14;2.65;;;1.52;;
37701;SDS011;23548;51.196;6.838;2023-04-03T16:21:40;4.53;;;1.70;;
37701;SDS011;23548;51.196;6.838;2023-04-03T16:24:06;5.90;;;1.58;;
37701;SDS011;23548;51.196;6.838;2023-04-03T16:26:32;2.55;;;1.38;;
37701;SDS011;23548;51.196;6.838;2023-04-03T16:28:58;4.03;;;1.58;;
37701;SDS011;23548;51.196;6.838;2023-04-03T16:31:23;5.68;;;1.70;;
37701;SDS011;23548;51.196;6.838;2023-04-03T16:33:51;4.72;;;1.50;;
37701;SDS011;23548;51.196;6.838;2023-04-03T16:36:16;5.63;;;1.75;;